createdAt,value
2022-11-16T10:38:28.488Z,97969.97
2022-11-16T10:41:05.764Z,97967.13
2022-11-16T10:43:33.628Z,97962.06
2022-11-16T10:46:44.758Z,97959.88
2022-11-16T10:49:30.087Z,97952.63
2022-11-16T10:51:57.651Z,97954.38
2022-11-16T10:54:24.339Z,97961.69
2022-11-16T10:57:13.937Z,97959.03
2022-11-16T10:59:44.821Z,97953.25
2022-11-16T11:02:36.647Z,97949.75
2022-11-16T11:05:16.995Z,97948.03
2022-11-16T11:08:04.257Z,97944.16
2022-11-16T11:10:32.389Z,97944.16
2022-11-16T11:13:10.150Z,97947.16
2022-11-16T11:15:42.316Z,97947.25
2022-11-16T11:18:24.359Z,97943.28
2022-11-16T11:21:17.599Z,97944.94
2022-11-16T11:23:49.159Z,97947.34
2022-11-16T11:26:36.160Z,97945.13
2022-11-16T11:29:15.684Z,97946.81
2022-11-16T11:31:46.667Z,97942.66
2022-11-16T11:34:21.819Z,97940.81
2022-11-16T11:36:54.154Z,97942.00
2022-11-16T11:39:20.749Z,97944.50
2022-11-16T11:42:13.683Z,97943.97
2022-11-16T11:44:49.598Z,97944.50
2022-11-16T11:50:48.603Z,97944.03
2022-11-16T11:53:40.777Z,97946.66
2022-11-16T11:56:12.085Z,97943.97
2022-11-16T11:58:40.287Z,97939.50
2022-11-16T12:01:45.402Z,97939.13
2022-11-16T12:04:46.078Z,97939.31
2022-11-16T12:07:22.022Z,97937.94
2022-11-16T12:10:15.022Z,97934.47
2022-11-16T12:13:20.317Z,97944.31
2022-11-16T12:16:05.232Z,97943.63
2022-11-16T12:19:14.503Z,97942.91
2022-11-16T12:21:50.314Z,97941.91
2022-11-16T12:24:41.482Z,97939.28
2022-11-16T12:27:08.149Z,97938.06
2022-11-16T12:29:56.957Z,97939.59
2022-11-16T12:32:47.603Z,97941.44
2022-11-16T12:35:38.814Z,97935.09
2022-11-16T12:38:21.754Z,97941.13
2022-11-16T12:41:11.787Z,97937.09
2022-11-16T12:43:57.181Z,97932.06
2022-11-16T12:47:10.467Z,97928.22
2022-11-16T12:49:46.194Z,97934.38
2022-11-16T12:52:31.743Z,97939.59
2022-11-16T12:57:55.648Z,97926.78
2022-11-16T13:00:22.410Z,97930.53
2022-11-16T13:03:00.654Z,97921.28
2022-11-16T13:05:45.634Z,97920.97
2022-11-16T13:08:25.208Z,97926.50
2022-11-16T13:10:57.008Z,97922.53
2022-11-16T13:13:36.482Z,97923.19
2022-11-16T13:16:17.374Z,97922.09
2022-11-16T13:18:44.709Z,97922.28
2022-11-16T13:21:20.653Z,97926.59
2022-11-16T13:23:59.637Z,97923.56
2022-11-16T13:26:40.838Z,97925.13
2022-11-16T13:29:34.196Z,97926.13
2022-11-16T13:32:22.878Z,97931.03
2022-11-16T13:34:50.624Z,97917.28
2022-11-16T13:37:39.411Z,97923.47
2022-11-16T13:40:06.371Z,97926.50
2022-11-16T13:42:35.953Z,97924.84
2022-11-16T13:45:17.241Z,97924.84
2022-11-16T13:48:21.380Z,97923.66
2022-11-16T13:51:11.861Z,97916.81
2022-11-16T13:56:49.968Z,97916.13
2022-11-16T13:59:24.379Z,97915.63
2022-11-16T14:02:03.487Z,97905.75
2022-11-16T14:04:42.639Z,97908.59
2022-11-16T14:07:30.164Z,97912.28
2022-11-16T14:09:57.408Z,97909.91
2022-11-16T14:12:52.829Z,97916.59
2022-11-16T14:15:24.552Z,97917.94
2022-11-16T14:18:01.381Z,97915.75
2022-11-16T14:20:43.721Z,97907.06
2022-11-16T14:23:30.979Z,97908.75
2022-11-16T14:26:12.479Z,97904.88
2022-11-16T14:28:45.553Z,97893.53
2022-11-16T14:31:54.896Z,97898.72
2022-11-16T14:34:52.806Z,97897.53
2022-11-16T14:37:25.853Z,97897.03
2022-11-16T14:39:58.852Z,97895.03
2022-11-16T14:42:38.272Z,97896.88
2022-11-16T14:45:24.820Z,97891.50
2022-11-16T14:47:53.436Z,97892.22
2022-11-16T14:50:23.398Z,97902.34
2022-11-16T14:52:55.144Z,97894.19
2022-11-16T14:55:25.632Z,97890.47
2022-11-16T15:02:20.256Z,97884.94
2022-11-16T15:04:47.760Z,97891.47
2022-11-16T15:07:15.990Z,97886.28
2022-11-16T15:09:48.864Z,97883.06
2022-11-16T15:12:52.864Z,97880.75
2022-11-16T15:15:24.063Z,97882.09
2022-11-16T15:26:23.967Z,97872.22
2022-11-16T15:28:52.314Z,97878.56
2022-11-16T15:31:21.187Z,97864.00
2022-11-16T15:33:51.792Z,97864.84
2022-11-16T15:40:30.077Z,97863.84
2022-11-16T15:43:01.165Z,97864.13
2022-11-16T15:45:30.529Z,97870.47
2022-11-16T15:48:00.762Z,97862.63
2022-11-16T15:50:28.745Z,97866.81
2022-11-16T15:52:56.178Z,97855.94
2022-11-16T15:55:24.511Z,97866.50
2022-11-16T16:13:40.761Z,97868.47
2022-11-16T16:23:26.529Z,97864.13
2022-11-16T16:25:54.190Z,97866.63
2022-11-16T16:28:22.776Z,97857.78
2022-11-16T16:38:24.005Z,97862.38
2022-11-16T16:40:51.091Z,97866.34
2022-11-16T16:43:21.070Z,97864.56
2022-11-16T16:45:48.127Z,97863.88
2022-11-16T16:54:19.304Z,97867.41
2022-11-16T16:59:43.572Z,97857.78
2022-11-16T17:02:21.725Z,97863.03
2022-11-16T17:05:10.606Z,97866.81
2022-11-16T17:11:33.033Z,97863.00
2022-11-16T17:15:19.383Z,97860.16
2022-11-16T17:19:07.150Z,97860.53
2022-11-16T17:21:45.925Z,97868.53
2022-11-16T17:24:45.286Z,97856.47
2022-11-16T17:30:00.960Z,97872.44
2022-11-16T17:32:54.140Z,97868.09
2022-11-16T17:35:34.449Z,97862.09
2022-11-16T17:38:04.208Z,97864.78
2022-11-16T17:40:40.023Z,97856.59
2022-11-16T17:43:25.981Z,97856.44
2022-11-16T17:46:13.717Z,97859.44
2022-11-16T17:52:45.936Z,97869.06
2022-11-16T17:56:14.014Z,97866.66
2022-11-16T17:59:29.474Z,97869.31
2022-11-16T18:03:02.125Z,97861.31
2022-11-16T18:05:44.517Z,97867.66
2022-11-16T18:08:26.611Z,97872.47
2022-11-16T18:14:07.810Z,97876.91
2022-11-16T18:16:58.196Z,97867.97
2022-11-16T18:19:30.698Z,97881.84
2022-11-16T18:30:49.262Z,97874.13
2022-11-16T18:33:40.755Z,97881.72
2022-11-16T18:36:25.579Z,97881.00
2022-11-16T18:38:59.524Z,97886.81
2022-11-16T18:47:45.378Z,97885.75
2022-11-16T18:50:20.048Z,97882.25
2022-11-16T18:53:00.094Z,97872.41
2022-11-16T18:55:32.496Z,97873.38
2022-11-16T18:58:22.893Z,97876.25
2022-11-16T19:01:15.419Z,97878.53
2022-11-16T19:03:48.853Z,97883.03
2022-11-16T19:06:18.094Z,97877.69
2022-11-16T19:08:54.957Z,97868.09
2022-11-16T19:11:26.456Z,97869.47
2022-11-16T19:14:05.057Z,97870.69
2022-11-16T19:16:35.243Z,97868.16
2022-11-16T19:19:02.903Z,97868.31
2022-11-16T19:21:30.411Z,97872.97
2022-11-16T19:24:01.072Z,97869.69
2022-11-16T19:26:28.260Z,97861.78
2022-11-16T19:28:57.337Z,97864.34
2022-11-16T19:34:19.162Z,97865.66
2022-11-16T19:36:46.340Z,97862.78
2022-11-16T19:39:13.461Z,97865.06
2022-11-16T19:41:40.401Z,97864.69
2022-11-16T19:44:10.530Z,97872.66
2022-11-16T19:46:39.436Z,97868.25
2022-11-16T19:49:19.778Z,97866.66
2022-11-16T19:51:53.879Z,97868.84
2022-11-16T19:54:24.087Z,97863.13
2022-11-16T19:57:03.882Z,97873.06
2022-11-16T19:59:42.016Z,97873.34
2022-11-16T20:02:11.994Z,97870.84
2022-11-16T20:04:43.419Z,97874.03
2022-11-16T20:07:19.537Z,97866.50
2022-11-16T20:09:53.463Z,97864.19
2022-11-16T20:12:51.719Z,97858.88
2022-11-16T20:15:24.911Z,97854.09
2022-11-16T20:21:38.566Z,97864.19
2022-11-16T21:03:55.296Z,97852.31
2022-11-16T21:21:05.474Z,97861.25
2022-11-16T21:23:38.621Z,97865.19
2022-11-16T21:39:39.913Z,97857.56
2022-11-16T21:51:34.103Z,97867.03
2022-11-16T21:54:08.816Z,97875.25
2022-11-16T22:12:52.671Z,97869.59
